Time;durP1;ratioP1;P1;durP2;ratioP2;P2;SDS_P1;SDS_P2;PMS_P1;PMS_P2;Temp;Humidity;BMP_temperature;BMP_pressure;BME280_temperature;BME280_humidity;BME280_pressure;Samples;Min_cycle;Max_cycle;Signal;HPM_P1;HPM_P2
2021/04/21 00:00:14;;;;;;;7.63;5.68;;;;;;;13.50;36.29;99826.31;5033411;28;20050;-84
2021/04/21 00:02:44;;;;;;;9.15;6.15;;;;;;;13.46;36.44;99829.25;5033047;28;20060;-84
2021/04/21 00:05:11;;;;;;;9.10;5.55;;;;;;;13.45;36.21;99832.88;5032926;28;20482;-84
2021/04/21 00:07:37;;;;;;;10.18;5.78;;;;;;;13.40;36.52;99833.16;5048682;28;20410;-84
2021/04/21 00:12:54;;;;;;;10.93;6.38;;;;;;;13.32;36.61;99827.56;4934605;29;20090;-85
2021/04/21 00:15:28;;;;;;;8.48;6.10;;;;;;;13.28;37.02;99824.28;4950522;29;20152;-85
2021/04/21 00:18:01;;;;;;;8.90;5.85;;;;;;;13.24;37.11;99820.16;4934758;29;20087;-85
2021/04/21 00:20:37;;;;;;;11.65;6.20;;;;;;;13.24;36.88;99817.50;4938669;29;20051;-85
2021/04/21 00:23:07;;;;;;;9.85;6.75;;;;;;;13.20;37.35;99811.56;4953914;29;20051;-85
2021/04/21 00:25:35;;;;;;;9.30;6.60;;;;;;;13.19;37.32;99819.63;4955036;28;20522;-85
2021/04/21 00:28:05;;;;;;;10.95;5.60;;;;;;;13.16;37.01;99813.56;4955204;28;20074;-85
2021/04/21 00:30:33;;;;;;;9.93;5.47;;;;;;;13.14;36.80;99807.56;4955293;28;20051;-85
2021/04/21 00:33:00;;;;;;;9.50;5.80;;;;;;;13.13;37.15;99815.56;4955247;28;20058;-85
2021/04/21 00:35:36;;;;;;;11.65;6.05;;;;;;;13.07;37.68;99805.41;4969629;28;20047;-85
2021/04/21 00:38:08;;;;;;;10.35;5.88;;;;;;;13.07;37.42;99808.03;4954001;29;20058;-85
2021/04/21 00:40:43;;;;;;;8.43;6.47;;;;;;;13.02;38.01;99809.19;4969981;28;20055;-85
2021/04/21 00:43:27;;;;;;;7.70;5.13;;;;;;;12.98;37.72;99802.41;4956483;28;20480;-85
2021/04/21 00:46:18;;;;;;;8.00;5.97;;;;;;;12.93;37.62;99812.44;4973263;28;20055;-85
2021/04/21 00:49:13;;;;;;;7.40;5.28;;;;;;;12.89;37.65;99806.53;4958592;28;20136;-85
2021/04/21 00:51:51;;;;;;;10.38;6.10;;;;;;;12.86;37.94;99806.72;4973269;28;20055;-85
2021/04/21 00:54:22;;;;;;;7.15;5.70;;;;;;;12.87;37.39;99804.94;4973124;28;20050;-85
2021/04/21 00:56:59;;;;;;;10.63;6.78;;;;;;;12.81;38.27;99805.34;4973466;28;20047;-85
2021/04/21 00:59:36;;;;;;;11.88;6.68;;;;;;;12.79;38.37;99802.81;4958357;28;20106;-85
2021/04/21 01:02:06;;;;;;;9.43;6.35;;;;;;;12.76;38.32;99800.38;4973375;28;20062;-85
2021/04/21 01:04:35;;;;;;;12.20;6.28;;;;;;;12.75;38.23;99801.31;4956818;29;20051;-85
2021/04/21 01:07:03;;;;;;;11.48;6.75;;;;;;;12.72;38.30;99801.50;4957068;29;20595;-85
2021/04/21 01:09:30;;;;;;;10.88;7.05;;;;;;;12.69;38.55;99794.66;4973025;28;20459;-85
2021/04/21 01:12:02;;;;;;;9.48;6.85;;;;;;;12.64;38.98;99797.56;4957751;28;20062;-85
2021/04/21 01:14:33;;;;;;;7.65;6.07;;;;;;;12.62;38.68;99796.84;4957935;28;20051;-85
2021/04/21 01:17:04;;;;;;;10.93;6.93;;;;;;;12.59;39.21;99797.03;4958305;28;20142;-85
2021/04/21 01:19:55;;;;;;;8.85;6.68;;;;;;;12.54;39.43;99793.00;4958125;28;20135;-85
2021/04/21 01:22:47;;;;;;;12.73;7.07;;;;;;;12.51;39.36;99796.69;4972496;28;20488;-85
2021/04/21 01:25:16;;;;;;;9.20;6.82;;;;;;;12.51;39.45;99794.03;4954663;28;20062;-85
2021/04/21 01:27:45;;;;;;;12.15;7.28;;;;;;;12.47;39.94;99793.41;4957931;28;20051;-85
2021/04/21 01:30:33;;;;;;;10.65;7.32;;;;;;;12.41;39.57;99792.94;4957754;28;20051;-85
2021/04/21 01:33:08;;;;;;;13.43;7.15;;;;;;;12.39;39.73;99790.41;4957850;28;20135;-85
2021/04/21 01:35:36;;;;;;;9.98;7.20;;;;;;;12.40;39.01;99785.97;4972530;28;20062;-85
2021/04/21 01:38:03;;;;;;;13.07;7.10;;;;;;;12.35;39.43;99787.13;4957741;28;20066;-85
2021/04/21 01:40:34;;;;;;;10.75;7.35;;;;;;;12.34;39.69;99787.22;4957537;28;20059;-85
2021/04/21 01:43:06;;;;;;;9.80;7.20;;;;;;;12.33;39.97;99788.13;4957567;28;20055;-85
2021/04/21 01:45:34;;;;;;;11.77;7.93;;;;;;;12.34;39.50;99790.69;4957174;28;20522;-85
2021/04/21 01:48:06;;;;;;;13.25;7.88;;;;;;;12.33;39.81;99783.72;4956141;29;20359;-85
2021/04/21 01:50:33;;;;;;;11.90;7.20;;;;;;;12.34;39.38;99784.56;4957471;28;20106;-84
2021/04/21 01:52:59;;;;;;;10.63;7.80;;;;;;;12.31;39.42;99785.63;4956299;29;20047;-85
2021/04/21 01:55:54;;;;;;;12.68;7.47;;;;;;;12.25;39.66;99788.63;4956365;28;20055;-85
2021/04/21 01:58:50;;;;;;;11.10;6.93;;;;;;;12.24;39.34;99794.88;4955165;28;20507;-85
2021/04/21 02:01:29;;;;;;;10.15;7.38;;;;;;;12.27;39.17;99794.69;4957457;28;20472;-84
2021/04/21 02:04:13;;;;;;;12.27;7.85;;;;;;;12.22;39.67;99794.97;4971614;28;20487;-85
2021/04/21 02:06:57;;;;;;;11.05;6.63;;;;;;;12.20;39.54;99794.22;4956148;29;20055;-85
2021/04/21 02:09:32;;;;;;;10.45;7.63;;;;;;;12.20;39.90;99790.72;4957255;28;20075;-85
2021/04/21 02:12:16;;;;;;;10.43;6.18;;;;;;;12.19;39.68;99792.50;4956872;28;20055;-85
2021/04/21 02:15:10;;;;;;;9.95;7.03;;;;;;;12.16;39.51;99797.13;4971750;28;20054;-85
2021/04/21 02:17:59;;;;;;;13.45;7.35;;;;;;;12.18;39.87;99788.19;4957121;28;20055;-85
2021/04/21 02:20:40;;;;;;;22.15;6.88;;;;;;;12.18;39.69;99790.81;4970991;28;20055;-85
2021/04/21 02:23:20;;;;;;;11.38;7.53;;;;;;;12.17;39.78;99790.91;4955750;28;20078;-85
2021/04/21 02:26:12;;;;;;;11.75;6.95;;;;;;;12.15;39.69;99793.63;4956540;28;20055;-85
2021/04/21 02:29:03;;;;;;;12.30;7.43;;;;;;;12.15;39.78;99792.81;4956673;28;20066;-85
2021/04/21 02:31:37;;;;;;;12.15;7.00;;;;;;;12.16;40.06;99794.50;4971705;28;20055;-85
2021/04/21 02:34:17;;;;;;;11.23;6.90;;;;;;;12.15;39.73;99790.16;4956505;28;20051;-85
2021/04/21 02:36:50;;;;;;;12.32;7.30;;;;;;;12.16;39.63;99789.22;4956676;28;20051;-85
2021/04/21 02:39:51;;;;;;;10.77;8.23;;;;;;;12.12;39.81;99791.22;4971508;28;20062;-85
2021/04/21 02:42:46;;;;;;;9.77;6.72;;;;;;;12.10;39.95;99786.03;4954797;28;20051;-85
2021/04/21 02:45:41;;;;;;;9.88;7.30;;;;;;;12.09;39.66;99784.34;4956050;29;20396;-85
2021/04/21 02:48:26;;;;;;;11.18;7.85;;;;;;;12.07;40.07;99782.75;4955556;28;20452;-85
2021/04/21 02:51:07;;;;;;;12.68;8.00;;;;;;;12.04;40.38;99781.09;4956221;28;20102;-85
2021/04/21 02:53:44;;;;;;;10.25;8.02;;;;;;;12.00;40.63;99776.94;4971099;28;20102;-85
2021/04/21 02:56:43;;;;;;;13.15;8.38;;;;;;;11.95;40.28;99784.31;4956362;28;20059;-85
2021/04/21 02:59:20;;;;;;;14.52;8.75;;;;;;;11.94;40.74;99778.22;4956316;28;20086;-85
2021/04/21 03:02:17;;;;;;;9.63;7.72;;;;;;;11.89;40.66;99774.16;4954918;29;20051;-85
2021/04/21 03:04:47;;;;;;;12.65;8.18;;;;;;;11.89;40.29;99774.16;4955889;28;20054;-85
2021/04/21 03:07:18;;;;;;;13.88;8.77;;;;;;;11.83;40.60;99776.25;4955350;28;20054;-85
2021/04/21 03:09:49;;;;;;;13.98;8.02;;;;;;;11.79;41.00;99779.16;4956132;28;20051;-85
2021/04/21 03:12:23;;;;;;;14.95;8.18;;;;;;;11.77;41.04;99773.13;4955774;28;20051;-85
2021/04/21 03:14:53;;;;;;;14.70;8.70;;;;;;;11.73;41.07;99780.38;4954401;29;20102;-85
2021/04/21 03:17:20;;;;;;;13.85;8.75;;;;;;;11.72;40.66;99778.69;4954891;29;20051;-85
2021/04/21 03:19:51;;;;;;;16.20;8.23;;;;;;;11.69;41.25;99776.22;4955942;29;20051;-85
2021/04/21 03:22:21;;;;;;;14.57;8.57;;;;;;;11.67;41.23;99778.13;4970504;28;20464;-85
2021/04/21 03:24:57;;;;;;;11.60;8.15;;;;;;;11.65;41.11;99780.00;4955302;28;20047;-85
2021/04/21 03:27:29;;;;;;;11.95;8.25;;;;;;;11.62;41.40;99778.38;4955783;28;20047;-85
2021/04/21 03:29:58;;;;;;;11.00;7.78;;;;;;;11.62;40.77;99777.56;4955593;29;20488;-85
2021/04/21 03:32:28;;;;;;;11.32;8.13;;;;;;;11.59;41.05;99781.22;4955638;28;20051;-85
2021/04/21 03:34:58;;;;;;;15.43;7.03;;;;;;;11.58;41.29;99780.38;4954189;29;20068;-85
2021/04/21 03:37:49;;;;;;;10.88;7.75;;;;;;;11.55;41.02;99785.81;4955721;28;20047;-85
2021/04/21 03:40:17;;;;;;;14.65;7.88;;;;;;;11.59;40.62;99786.50;4955496;28;20055;-85
2021/04/21 03:42:44;;;;;;;13.57;7.53;;;;;;;11.59;40.59;99789.97;4970322;28;20062;-85
2021/04/21 03:45:12;;;;;;;12.02;7.70;;;;;;;11.58;40.61;99780.38;4955264;28;20416;-85
2021/04/21 03:47:39;;;;;;;12.93;7.70;;;;;;;11.59;40.91;99782.06;4954454;29;20063;-85
2021/04/21 03:50:08;;;;;;;12.38;7.97;;;;;;;11.58;41.12;99779.53;4970245;28;20051;-85
2021/04/21 03:52:37;;;;;;;13.40;7.72;;;;;;;11.57;40.75;99781.31;4955312;28;20055;-85
2021/04/21 03:55:05;;;;;;;10.85;8.05;;;;;;;11.53;40.75;99781.59;4955277;28;20519;-85
2021/04/21 03:57:33;;;;;;;12.63;7.95;;;;;;;11.46;40.85;99781.13;4955640;28;20074;-85
2021/04/21 04:00:03;;;;;;;13.73;7.60;;;;;;;11.41;41.00;99770.88;4955576;28;20054;-85
2021/04/21 04:02:31;;;;;;;12.48;7.38;;;;;;;11.37;40.68;99787.81;4955315;28;20055;-84
2021/04/21 04:05:03;;;;;;;11.68;7.30;;;;;;;11.32;41.32;99772.25;4955100;28;20492;-84
2021/04/21 04:07:35;;;;;;;9.27;7.05;;;;;;;11.30;41.21;99776.78;4954424;29;20051;-84
2021/04/21 04:10:04;;;;;;;11.70;7.07;;;;;;;11.30;41.40;99782.06;4955331;28;20055;-84
2021/04/21 04:12:35;;;;;;;11.55;7.40;;;;;;;11.31;41.39;99783.75;4955189;28;20055;-84
2021/04/21 04:15:02;;;;;;;12.32;7.53;;;;;;;11.33;41.46;99781.03;4955144;28;20055;-84
2021/04/21 04:17:31;;;;;;;8.73;6.72;;;;;;;11.34;41.44;99783.53;4955864;28;20077;-84
2021/04/21 04:20:00;;;;;;;12.48;7.50;;;;;;;11.33;41.25;99779.22;4959220;28;20389;-84
2021/04/21 04:22:30;;;;;;;12.48;6.65;;;;;;;11.33;41.17;99784.47;4959202;28;20083;-84
2021/04/21 04:24:57;;;;;;;11.00;7.18;;;;;;;11.34;41.20;99790.63;4958655;28;20048;-84
2021/04/21 04:27:26;;;;;;;12.48;7.15;;;;;;;11.34;41.09;99786.16;4958643;28;20055;-84
2021/04/21 04:29:57;;;;;;;18.52;8.80;;;;;;;11.33;41.16;99789.75;4959028;28;20070;-84
2021/04/21 04:32:26;;;;;;;11.25;7.25;;;;;;;11.33;41.24;99792.38;4958941;28;20055;-84
2021/04/21 04:34:57;;;;;;;11.38;7.53;;;;;;;11.34;41.17;99793.25;4958672;28;20055;-84
2021/04/21 04:37:25;;;;;;;10.18;7.38;;;;;;;11.36;41.30;99790.53;4958905;28;20525;-84
2021/04/21 04:39:52;;;;;;;11.82;7.32;;;;;;;11.36;41.20;99787.91;4958700;28;20086;-84
2021/04/21 04:42:19;;;;;;;10.73;7.35;;;;;;;11.39;40.95;99790.31;4973518;28;20448;-84
2021/04/21 04:44:48;;;;;;;10.73;7.03;;;;;;;11.40;41.39;99790.22;4958342;28;20077;-84
2021/04/21 04:47:20;;;;;;;10.45;7.13;;;;;;;11.42;41.16;99790.16;4957415;29;20106;-84
2021/04/21 04:50:22;;;;;;;18.02;8.50;;;;;;;11.41;41.17;99794.59;4958624;28;20051;-84
2021/04/21 04:52:52;;;;;;;10.02;6.90;;;;;;;11.48;41.31;99792.44;4937358;29;20063;-84
2021/04/21 04:55:20;;;;;;;10.15;6.80;;;;;;;11.50;41.09;99787.91;4954271;28;20500;-84
2021/04/21 04:57:49;;;;;;;9.77;7.00;;;;;;;11.51;41.13;99794.84;4958638;29;20059;-84
2021/04/21 05:00:18;;;;;;;10.77;7.25;;;;;;;11.54;41.15;99792.03;4957284;29;20125;-85
2021/04/21 05:03:06;;;;;;;12.35;7.20;;;;;;;11.53;41.12;99793.00;4958108;28;20055;-86
2021/04/21 05:05:35;;;;;;;11.10;7.35;;;;;;;11.58;41.59;99796.19;4957763;28;20054;-86
2021/04/21 05:08:10;;;;;;;13.15;7.75;;;;;;;11.58;41.61;99804.09;4958243;28;20051;-86
2021/04/21 05:10:39;;;;;;;11.98;6.15;;;;;;;11.63;41.04;99808.25;4957867;28;20420;-86
2021/04/21 05:13:08;;;;;;;10.85;7.20;;;;;;;11.64;41.10;99805.53;4956961;29;20191;-86
2021/04/21 05:15:37;;;;;;;13.75;7.30;;;;;;;11.65;41.59;99812.50;4957869;28;20073;-86
2021/04/21 05:18:27;;;;;;;12.93;7.25;;;;;;;11.66;42.09;99808.06;4957829;28;20051;-86
2021/04/21 05:21:21;;;;;;;12.27;7.72;;;;;;;11.65;41.71;99804.56;4957898;28;20055;-86
2021/04/21 05:24:19;;;;;;;14.05;6.82;;;;;;;11.66;41.73;99815.97;4971075;28;20047;-86
2021/04/21 05:27:17;;;;;;;8.50;6.38;;;;;;;11.69;41.28;99813.13;4957978;28;20051;-86
2021/04/21 05:30:04;;;;;;;13.73;7.20;;;;;;;11.70;41.73;99820.97;4955823;28;20059;-85
2021/04/21 05:32:55;;;;;;;10.48;6.95;;;;;;;11.73;41.94;99810.22;4972337;28;20453;-86
2021/04/21 05:35:59;;;;;;;15.00;7.57;;;;;;;11.77;41.64;99824.06;4972284;28;20062;-86
2021/04/21 05:38:37;;;;;;;12.07;6.90;;;;;;;11.82;41.70;99827.25;4972535;28;20062;-86
2021/04/21 05:41:51;;;;;;;10.65;7.35;;;;;;;11.86;41.56;99825.31;4972329;28;20067;-85
2021/04/21 05:44:53;;;;;;;9.80;6.57;;;;;;;11.94;41.73;99830.09;4957244;28;20047;-86
2021/04/21 05:47:44;;;;;;;11.32;7.47;;;;;;;11.97;41.73;99830.75;4972510;28;20114;-86
2021/04/21 05:50:36;;;;;;;16.33;7.85;;;;;;;12.02;41.68;99827.84;4957381;28;20076;-85
2021/04/21 05:53:21;;;;;;;10.63;7.50;;;;;;;12.11;41.51;99829.94;4969776;28;20059;-85
2021/04/21 05:56:06;;;;;;;16.08;8.38;;;;;;;12.14;42.08;99834.16;4957147;29;20223;-86
2021/04/21 05:58:35;;;;;;;16.60;8.10;;;;;;;12.22;42.08;99837.19;4972136;28;20055;-86
2021/04/21 06:01:29;;;;;;;18.17;7.97;;;;;;;12.25;42.05;99836.13;4957109;28;20106;-86
2021/04/21 06:03:57;;;;;;;10.18;7.55;;;;;;;12.33;41.77;99833.88;4955580;29;20130;-85
2021/04/21 06:06:25;;;;;;;13.10;8.18;;;;;;;12.37;41.90;99840.66;4972130;28;20055;-85
2021/04/21 06:08:52;;;;;;;12.82;7.82;;;;;;;12.42;42.01;99834.22;4955846;29;20055;-86
2021/04/21 07:21:25;;;;;;;17.27;9.82;;;;;;;13.62;41.95;99864.34;5013457;28;20096;-87
2021/04/21 07:23:53;;;;;;;15.98;9.77;;;;;;;13.64;42.27;99861.59;5013716;28;20042;-87
2021/04/21 07:26:47;;;;;;;14.57;9.55;;;;;;;13.64;42.42;99865.06;5054427;23;20045;-87
2021/04/21 07:29:24;;;;;;;13.95;8.82;;;;;;;13.70;41.89;99877.03;5013513;28;20057;-87
2021/04/21 07:31:52;;;;;;;12.70;9.07;;;;;;;13.75;42.06;99874.91;5013572;28;20054;-87
2021/04/21 07:34:33;;;;;;;14.73;9.95;;;;;;;13.76;42.13;99870.47;5014540;28;20049;-87
2021/04/21 07:37:01;;;;;;;17.00;9.00;;;;;;;13.85;42.01;99871.63;4993917;28;20054;-87
2021/04/21 07:39:36;;;;;;;14.68;9.70;;;;;;;13.86;42.36;99871.53;4995009;28;20054;-87
2021/04/21 07:42:17;;;;;;;14.27;9.73;;;;;;;13.91;42.30;99872.03;4993909;28;20046;-87
2021/04/21 07:44:51;;;;;;;21.00;9.38;;;;;;;13.99;42.08;99878.63;4994922;28;20043;-87
2021/04/21 07:47:23;;;;;;;14.98;9.45;;;;;;;14.04;42.03;99871.19;4994081;28;20058;-87
2021/04/21 07:49:58;;;;;;;12.48;9.15;;;;;;;14.11;42.27;99884.84;4994202;28;20486;-87
2021/04/21 07:52:26;;;;;;;14.45;8.98;;;;;;;14.19;41.74;99885.16;4994717;28;20057;-87
2021/04/21 07:55:14;;;;;;;13.57;9.07;;;;;;;14.20;41.32;99885.06;4993580;28;20053;-87
2021/04/21 07:57:44;;;;;;;15.23;9.07;;;;;;;14.30;41.61;99885.25;4993906;28;20054;-87
2021/04/21 08:00:23;;;;;;;17.10;9.30;;;;;;;14.34;41.44;99888.53;4993921;28;20050;-87
2021/04/21 08:02:50;;;;;;;13.43;8.38;;;;;;;14.42;41.27;99890.63;5010520;28;20054;-87
2021/04/21 08:05:16;;;;;;;10.93;8.05;;;;;;;14.48;40.93;99886.69;4993200;28;20518;-87
2021/04/21 08:07:54;;;;;;;14.13;8.25;;;;;;;14.49;41.18;99885.72;4994889;28;20057;-87
2021/04/21 08:10:20;;;;;;;12.90;8.48;;;;;;;14.58;40.71;99890.41;4993582;28;20058;-87
2021/04/21 08:12:46;;;;;;;14.35;8.55;;;;;;;14.64;40.96;99883.78;4994085;28;20053;-87
2021/04/21 08:15:12;;;;;;;13.23;8.32;;;;;;;14.69;41.16;99890.44;4994697;28;20046;-87
2021/04/21 08:17:57;;;;;;;12.55;8.02;;;;;;;14.76;41.24;99895.31;4995080;28;20064;-87
2021/04/21 08:20:36;;;;;;;10.18;7.55;;;;;;;14.88;41.10;99902.38;4993728;28;20450;-88
2021/04/21 08:23:22;;;;;;;10.95;7.63;;;;;;;15.03;40.78;99902.25;5007955;28;20447;-87
2021/04/21 08:25:50;;;;;;;10.85;7.72;;;;;;;15.15;40.72;99903.13;4993030;28;20116;-87
2021/04/21 08:28:16;;;;;;;13.23;7.35;;;;;;;15.27;40.30;99902.22;4993499;28;20050;-87
2021/04/21 08:30:54;;;;;;;15.88;8.15;;;;;;;15.36;40.18;99900.66;4993351;28;20070;-88
2021/04/21 08:33:20;;;;;;;10.50;7.35;;;;;;;15.49;40.04;99893.50;4994526;28;20050;-88
2021/04/21 08:35:47;;;;;;;13.45;7.50;;;;;;;15.60;39.84;99900.66;4994171;28;20046;-87
2021/04/21 08:38:13;;;;;;;13.73;8.02;;;;;;;15.68;40.00;99902.72;4993463;28;20050;-87
2021/04/21 08:40:40;;;;;;;13.10;7.30;;;;;;;15.77;39.74;99904.66;4993448;28;20055;-88
2021/04/21 08:43:08;;;;;;;9.93;6.78;;;;;;;15.86;39.68;99910.22;4993002;28;20054;-87
2021/04/21 08:45:36;;;;;;;12.20;6.88;;;;;;;15.95;39.01;99906.88;4993718;28;20078;-88
2021/04/21 08:48:04;;;;;;;11.63;6.70;;;;;;;16.03;39.43;99908.94;4994302;28;20058;-88
2021/04/21 08:50:35;;;;;;;16.23;7.43;;;;;;;16.13;39.52;99909.06;4993027;28;20051;-88
2021/04/21 08:53:07;;;;;;;12.25;7.68;;;;;;;16.24;39.38;99914.41;4993441;28;20396;-87
2021/04/21 08:55:34;;;;;;;10.23;6.53;;;;;;;16.34;39.15;99903.88;4994230;28;20050;-87
2021/04/21 08:58:02;;;;;;;10.50;6.95;;;;;;;16.46;38.77;99910.03;4993209;28;20174;-87
2021/04/21 09:00:28;;;;;;;12.60;6.93;;;;;;;16.56;38.42;99909.31;4994478;28;20511;-88
2021/04/21 09:03:00;;;;;;;10.60;5.97;;;;;;;16.64;38.52;99912.19;4993866;28;20054;-88
2021/04/21 09:05:26;;;;;;;11.13;6.68;;;;;;;16.75;38.47;99906.03;5011630;28;20050;-87
2021/04/21 09:07:52;;;;;;;14.05;6.63;;;;;;;16.85;38.42;99906.94;4997780;28;20506;-88
2021/04/21 09:10:19;;;;;;;8.93;6.43;;;;;;;16.94;38.03;99910.69;4996127;28;20065;-88
2021/04/21 09:12:46;;;;;;;11.07;6.38;;;;;;;17.03;38.25;99909.94;4996364;28;20081;-88
2021/04/21 09:15:14;;;;;;;15.80;6.50;;;;;;;17.15;37.40;99915.22;5011996;28;20050;-88
2021/04/21 09:17:51;;;;;;;10.88;6.13;;;;;;;17.25;37.09;99908.19;4996326;28;20057;-88
2021/04/21 09:20:20;;;;;;;11.07;5.65;;;;;;;17.36;37.38;99907.28;4995847;28;20490;-88
2021/04/21 09:23:19;;;;;;;11.88;6.10;;;;;;;17.45;36.50;99911.00;4996139;28;20105;-87
2021/04/21 09:25:54;;;;;;;11.05;5.85;;;;;;;17.58;36.71;99908.97;4997586;28;20439;-87
2021/04/21 09:28:23;;;;;;;8.57;5.95;;;;;;;17.69;36.37;99913.41;4996357;28;20058;-87
2021/04/21 09:30:56;;;;;;;11.07;5.30;;;;;;;17.79;35.93;99913.47;4996697;28;20483;-87
2021/04/21 09:33:28;;;;;;;8.27;5.63;;;;;;;17.87;35.83;99906.66;4997169;28;20446;-88
2021/04/21 09:35:55;;;;;;;7.25;5.15;;;;;;;17.96;35.84;99913.84;5012560;28;20137;-88
2021/04/21 09:38:27;;;;;;;7.50;5.45;;;;;;;18.03;35.93;99923.00;4996606;28;20053;-88
2021/04/21 09:41:00;;;;;;;9.10;5.60;;;;;;;18.11;35.70;99917.03;4995803;28;20061;-88
2021/04/21 09:43:34;;;;;;;7.13;4.88;;;;;;;18.21;35.40;99917.91;4997309;28;20446;-88
2021/04/21 09:46:03;;;;;;;9.07;5.00;;;;;;;18.32;35.58;99914.31;4996802;28;20055;-88
2021/04/21 09:48:37;;;;;;;8.65;5.13;;;;;;;18.45;35.20;99922.09;4995453;28;20066;-89
2021/04/21 09:51:06;;;;;;;6.97;4.47;;;;;;;18.56;34.13;99917.63;4996524;28;20050;-88
2021/04/21 09:53:34;;;;;;;7.43;4.68;;;;;;;18.65;34.75;99915.97;4995397;28;20403;-88
2021/04/21 09:56:14;;;;;;;8.95;4.80;;;;;;;18.72;34.51;99919.78;4995115;28;20054;-88
2021/04/21 09:58:45;;;;;;;10.18;4.40;;;;;;;18.84;34.88;99917.84;4996287;28;20495;-88
2021/04/21 10:01:19;;;;;;;4.47;3.90;;;;;;;18.95;34.15;99924.88;4995558;28;20462;-88
2021/04/21 10:03:47;;;;;;;7.82;4.22;;;;;;;19.08;34.67;99921.97;4995030;28;20130;-88
2021/04/21 10:06:21;;;;;;;12.60;4.68;;;;;;;19.15;33.94;99917.78;5011617;28;20061;-88
2021/04/21 10:08:47;;;;;;;6.35;4.50;;;;;;;19.26;34.19;99916.81;4995523;28;20054;-87
2021/04/21 10:11:14;;;;;;;6.88;5.13;;;;;;;19.35;34.45;99915.94;4998366;28;20054;-85
2021/04/21 10:13:48;;;;;;;7.68;5.50;;;;;;;19.45;33.22;99926.63;5013591;28;20558;-86
2021/04/21 10:16:16;;;;;;;7.93;4.80;;;;;;;19.57;33.06;99918.44;5013488;28;20050;-85
2021/04/21 10:18:43;;;;;;;7.00;5.25;;;;;;;19.63;33.74;99921.41;4997212;28;20055;-85
2021/04/21 10:21:15;;;;;;;8.23;5.22;;;;;;;19.73;33.17;99915.22;4997746;28;20446;-85
2021/04/21 10:23:49;;;;;;;9.05;5.22;;;;;;;19.79;32.56;99912.81;5013542;28;20049;-87
2021/04/21 10:26:17;;;;;;;8.40;5.43;;;;;;;19.90;32.53;99914.47;4997190;28;20532;-85
2021/04/21 10:28:45;;;;;;;8.07;5.45;;;;;;;19.99;32.92;99910.13;4998355;28;20054;-85
2021/04/21 10:31:15;;;;;;;9.55;5.35;;;;;;;20.07;32.97;99909.38;4999896;28;20050;-85
2021/04/21 10:33:42;;;;;;;10.82;4.80;;;;;;;20.17;32.71;99915.53;5013331;28;20046;-88
2021/04/21 10:36:09;;;;;;;8.48;5.22;;;;;;;20.26;32.93;99913.81;4997182;28;20069;-86
2021/04/21 10:38:41;;;;;;;8.30;4.57;;;;;;;20.36;32.18;99920.94;4998300;28;20151;-85
2021/04/21 10:41:35;;;;;;;8.55;5.05;;;;;;;20.42;32.40;99915.84;4997413;28;20054;-85
2021/04/21 10:44:15;;;;;;;7.57;4.72;;;;;;;20.54;32.30;99912.97;4998291;28;20046;-85
2021/04/21 10:47:01;;;;;;;7.35;4.60;;;;;;;20.63;32.34;99909.41;4998444;28;20050;-85
2021/04/21 10:49:43;;;;;;;8.68;4.80;;;;;;;20.75;31.93;99915.38;4997206;28;20472;-85
2021/04/21 10:52:26;;;;;;;6.88;4.72;;;;;;;20.90;32.40;99915.75;4997409;28;20054;-85
2021/04/21 10:54:54;;;;;;;9.57;4.82;;;;;;;21.12;31.88;99915.47;4995427;28;20054;-86
2021/04/21 10:57:23;;;;;;;7.05;4.78;;;;;;;21.35;32.11;99916.66;4994734;28;20491;-86
2021/04/21 11:00:09;;;;;;;6.57;4.30;;;;;;;21.67;31.25;99921.59;4993769;28;20046;-86
2021/04/21 11:02:44;;;;;;;7.28;4.35;;;;;;;22.14;31.14;99915.06;4994692;28;20113;-87
2021/04/21 11:05:26;;;;;;;4.85;3.70;;;;;;;22.66;31.16;99910.63;4993128;28;20120;-86
2021/04/21 11:08:03;;;;;;;9.18;4.47;;;;;;;23.21;30.44;99913.72;4993629;28;20120;-87
2021/04/21 11:10:50;;;;;;;6.40;4.10;;;;;;;23.72;29.72;99911.91;4994508;28;20053;-86
2021/04/21 11:13:40;;;;;;;6.97;4.35;;;;;;;24.22;29.84;99915.34;4993549;28;20050;-86
2021/04/21 11:16:32;;;;;;;7.30;4.60;;;;;;;24.69;28.58;99915.47;5009441;28;20075;-86
2021/04/21 11:19:14;;;;;;;6.97;4.38;;;;;;;25.06;28.06;99910.41;4986586;28;20482;-87
2021/04/21 11:21:40;;;;;;;6.35;4.35;;;;;;;25.23;27.74;99909.25;4994542;28;20057;-86
2021/04/21 11:24:06;;;;;;;6.38;3.97;;;;;;;25.18;26.76;99895.50;4994110;28;20101;-86
2021/04/21 11:26:37;;;;;;;8.60;5.30;;;;;;;25.05;26.53;99904.19;4993858;28;20100;-86
2021/04/21 11:29:12;;;;;;;7.30;5.10;;;;;;;24.88;25.96;99910.69;4994006;28;20496;-86
2021/04/21 11:31:44;;;;;;;8.48;5.20;;;;;;;24.67;26.47;99921.03;4994312;28;20502;-86
2021/04/21 11:34:24;;;;;;;7.63;5.43;;;;;;;24.52;27.84;99910.19;4992930;28;20054;-86
2021/04/21 11:36:57;;;;;;;8.48;5.75;;;;;;;24.59;28.23;99911.16;4994423;28;20058;-86
2021/04/21 11:39:42;;;;;;;6.85;5.75;;;;;;;24.80;29.15;99907.00;4993656;28;20050;-86
2021/04/21 11:42:22;;;;;;;7.70;6.15;;;;;;;25.17;28.42;99910.00;4992912;28;20557;-86
2021/04/21 11:45:07;;;;;;;8.75;7.30;;;;;;;25.55;27.99;99911.03;4992607;28;20058;-86
2021/04/21 11:47:39;;;;;;;7.75;6.63;;;;;;;25.86;27.34;99916.31;4992737;28;20054;-87
2021/04/21 11:50:27;;;;;;;10.55;7.03;;;;;;;26.04;27.75;99907.03;4993091;28;20054;-85
2021/04/21 11:53:15;;;;;;;13.63;8.77;;;;;;;26.25;27.85;99910.84;4994232;28;20054;-87
2021/04/21 11:55:44;;;;;;;12.65;8.98;;;;;;;26.49;27.67;99911.56;4992503;28;20487;-87
2021/04/21 11:58:18;;;;;;;11.45;8.95;;;;;;;26.72;27.76;99910.63;4992911;28;20050;-87
2021/04/21 12:00:50;;;;;;;12.52;9.27;;;;;;;26.99;27.35;99900.13;4993997;28;20053;-87
2021/04/21 12:03:25;;;;;;;11.45;9.35;;;;;;;27.25;26.34;99902.22;5009081;28;20058;-87
2021/04/21 12:06:00;;;;;;;9.60;8.23;;;;;;;27.52;25.63;99909.72;4992292;28;20050;-87
2021/04/21 12:08:28;;;;;;;15.13;8.80;;;;;;;27.73;26.16;99911.56;4993790;28;20062;-87
2021/04/21 12:10:57;;;;;;;12.23;9.77;;;;;;;27.91;25.49;99916.50;4992785;28;20057;-87
2021/04/21 12:13:26;;;;;;;14.27;9.65;;;;;;;28.01;25.58;99912.59;4993949;28;20058;-87
2021/04/21 12:15:57;;;;;;;14.68;8.63;;;;;;;28.11;25.18;99921.19;4992349;28;20046;-88
2021/04/21 12:18:34;;;;;;;12.32;9.77;;;;;;;28.24;24.99;99933.94;4992723;28;20057;-87
2021/04/21 12:21:22;;;;;;;12.32;9.18;;;;;;;28.41;25.17;99917.41;4992759;28;20410;-87
2021/04/21 12:23:52;;;;;;;10.88;9.57;;;;;;;28.58;24.54;99915.19;4993890;28;20050;-87
2021/04/21 12:26:20;;;;;;;10.80;8.70;;;;;;;28.68;24.79;99920.22;4992223;28;20069;-87
2021/04/21 12:28:54;;;;;;;12.40;9.13;;;;;;;28.73;24.62;99917.72;4992577;28;20050;-87
2021/04/21 12:31:21;;;;;;;12.15;9.27;;;;;;;28.85;25.43;99904.41;4995131;28;20046;-87
2021/04/21 12:33:49;;;;;;;15.50;8.88;;;;;;;28.95;24.66;99910.31;4992170;28;20507;-86
2021/04/21 12:36:21;;;;;;;13.52;10.05;;;;;;;28.95;24.05;99918.44;4992512;28;20085;-87
2021/04/21 12:39:14;;;;;;;12.15;9.65;;;;;;;28.74;24.27;99917.53;4994825;28;20061;-87
2021/04/21 12:41:43;;;;;;;20.60;9.73;;;;;;;28.51;23.85;99919.75;4997258;28;20054;-87
2021/04/21 12:44:13;;;;;;;21.25;9.80;;;;;;;28.04;24.21;99917.59;4995664;28;20058;-87
2021/04/21 12:46:40;;;;;;;13.32;9.63;;;;;;;27.60;24.86;99917.69;4997161;28;20614;-87
2021/04/21 12:49:37;;;;;;;13.07;9.30;;;;;;;27.00;25.72;99918.00;4997284;28;20057;-86
2021/04/21 12:52:14;;;;;;;13.70;8.77;;;;;;;26.63;25.98;99909.88;4997347;28;20058;-87
2021/04/21 12:54:50;;;;;;;13.15;9.18;;;;;;;26.31;26.08;99930.88;4995693;28;20043;-86
2021/04/21 12:57:17;;;;;;;10.98;8.90;;;;;;;26.03;27.07;99924.25;4997245;28;20047;-87
2021/04/21 12:59:45;;;;;;;10.18;7.97;;;;;;;25.87;27.38;99919.88;4997044;28;20054;-87
2021/04/21 13:02:16;;;;;;;12.63;7.88;;;;;;;25.75;27.25;99928.38;5012263;28;20054;-87
2021/04/21 13:04:45;;;;;;;12.90;8.85;;;;;;;25.65;27.68;99933.22;4995589;28;20061;-87
2021/04/21 13:07:15;;;;;;;11.95;7.88;;;;;;;25.63;28.24;99929.84;4997063;28;20050;-87
2021/04/21 13:09:42;;;;;;;12.50;7.75;;;;;;;25.62;27.84;99937.13;4995647;28;20061;-86
2021/04/21 13:12:11;;;;;;;10.52;8.20;;;;;;;25.65;27.92;99935.06;5012050;28;20053;-87
2021/04/21 13:14:43;;;;;;;10.15;7.65;;;;;;;25.67;27.99;99935.72;4995186;28;20058;-87